sensor_id;sensor_type;location;lat;lon;timestamp;pressure;altitude;pressure_sealevel;temperature;humidity
26087;BME280;13851;43.434;28.338;2022-12-18T00:01:26;100454.91;;;10.89;100.00
26087;BME280;13851;43.434;28.338;2022-12-18T00:03:53;100702.28;;;12.41;100.00
26087;BME280;13851;43.434;28.338;2022-12-18T00:06:20;100702.63;;;12.46;100.00
26087;BME280;13851;43.434;28.338;2022-12-18T00:08:46;100666.59;;;12.17;100.00
26087;BME280;13851;43.434;28.338;2022-12-18T00:11:13;100573.59;;;11.49;100.00
26087;BME280;13851;43.434;28.338;2022-12-18T00:13:42;100699.56;;;12.01;100.00
26087;BME280;13851;43.434;28.338;2022-12-18T00:16:14;100712.78;;;12.21;100.00
26087;BME280;13851;43.434;28.338;2022-12-18T00:18:41;100659.06;;;11.94;100.00
26087;BME280;13851;43.434;28.338;2022-12-18T00:21:09;100671.06;;;12.10;100.00
26087;BME280;13851;43.434;28.338;2022-12-18T00:23:36;100696.84;;;12.09;100.00
26087;BME280;13851;43.434;28.338;2022-12-18T00:26:07;100766.00;;;12.12;100.00
26087;BME280;13851;43.434;28.338;2022-12-18T00:28:34;100713.97;;;12.03;100.00
26087;BME280;13851;43.434;28.338;2022-12-18T00:31:12;100741.28;;;12.04;100.00
26087;BME280;13851;43.434;28.338;2022-12-18T00:33:38;100706.06;;;11.83;100.00
26087;BME280;13851;43.434;28.338;2022-12-18T00:36:05;100788.81;;;12.05;100.00
26087;BME280;13851;43.434;28.338;2022-12-18T00:38:32;100721.53;;;12.01;100.00
26087;BME280;13851;43.434;28.338;2022-12-18T00:40:57;100749.31;;;11.97;100.00
26087;BME280;13851;43.434;28.338;2022-12-18T00:43:23;100681.88;;;11.87;100.00
26087;BME280;13851;43.434;28.338;2022-12-18T00:45:52;100714.41;;;11.65;100.00
26087;BME280;13851;43.434;28.338;2022-12-18T00:48:18;100709.28;;;11.62;100.00
26087;BME280;13851;43.434;28.338;2022-12-18T00:50:44;100450.22;;;10.07;100.00
26087;BME280;13851;43.434;28.338;2022-12-18T00:53:09;100719.19;;;11.47;100.00
26087;BME280;13851;43.434;28.338;2022-12-18T00:55:37;100732.22;;;11.53;100.00
26087;BME280;13851;43.434;28.338;2022-12-18T00:58:03;100718.69;;;11.52;100.00
26087;BME280;13851;43.434;28.338;2022-12-18T01:00:28;100518.19;;;10.46;100.00
26087;BME280;13851;43.434;28.338;2022-12-18T01:02:54;100687.44;;;11.44;100.00
26087;BME280;13851;43.434;28.338;2022-12-18T01:05:19;100737.56;;;11.71;100.00
26087;BME280;13851;43.434;28.338;2022-12-18T01:07:45;100526.53;;;10.36;100.00
26087;BME280;13851;43.434;28.338;2022-12-18T01:10:12;100475.22;;;10.12;100.00
26087;BME280;13851;43.434;28.338;2022-12-18T01:12:37;100674.31;;;11.14;100.00
26087;BME280;13851;43.434;28.338;2022-12-18T01:15:03;100715.84;;;11.27;100.00
26087;BME280;13851;43.434;28.338;2022-12-18T01:17:29;100724.66;;;11.47;100.00
26087;BME280;13851;43.434;28.338;2022-12-18T01:19:54;100776.72;;;11.73;100.00
26087;BME280;13851;43.434;28.338;2022-12-18T01:22:20;100768.31;;;11.75;100.00
26087;BME280;13851;43.434;28.338;2022-12-18T01:24:45;100669.53;;;11.16;100.00
26087;BME280;13851;43.434;28.338;2022-12-18T01:27:11;100743.78;;;11.81;100.00
26087;BME280;13851;43.434;28.338;2022-12-18T01:29:36;100477.78;;;10.39;100.00
26087;BME280;13851;43.434;28.338;2022-12-18T01:32:02;100758.28;;;12.16;100.00
26087;BME280;13851;43.434;28.338;2022-12-18T01:34:28;100752.44;;;12.19;100.00
26087;BME280;13851;43.434;28.338;2022-12-18T01:36:53;100767.03;;;12.28;100.00
26087;BME280;13851;43.434;28.338;2022-12-18T01:39:19;100573.88;;;11.13;100.00
26087;BME280;13851;43.434;28.338;2022-12-18T01:41:45;100754.16;;;12.20;100.00
26087;BME280;13851;43.434;28.338;2022-12-18T01:47:39;100782.31;;;12.38;100.00
26087;BME280;13851;43.434;28.338;2022-12-18T01:50:13;100734.22;;;12.18;100.00
26087;BME280;13851;43.434;28.338;2022-12-18T01:53:15;100780.78;;;12.44;100.00
26087;BME280;13851;43.434;28.338;2022-12-18T01:55:58;100764.78;;;12.07;100.00
26087;BME280;13851;43.434;28.338;2022-12-18T01:58:41;100751.41;;;12.36;100.00
26087;BME280;13851;43.434;28.338;2022-12-18T02:01:09;100522.94;;;10.86;100.00
26087;BME280;13851;43.434;28.338;2022-12-18T02:03:35;100732.34;;;12.27;100.00
26087;BME280;13851;43.434;28.338;2022-12-18T02:08:40;100755.03;;;12.37;100.00
26087;BME280;13851;43.434;28.338;2022-12-18T02:17:01;100499.16;;;10.36;100.00
26087;BME280;13851;43.434;28.338;2022-12-18T02:22:54;100778.47;;;11.82;100.00
26087;BME280;13851;43.434;28.338;2022-12-18T02:27:58;100784.25;;;11.71;100.00
26087;BME280;13851;43.434;28.338;2022-12-18T02:30:27;100778.88;;;11.61;100.00
26087;BME280;13851;43.434;28.338;2022-12-18T02:32:55;100789.31;;;11.50;100.00
26087;BME280;13851;43.434;28.338;2022-12-18T02:35:24;100746.31;;;11.58;100.00
26087;BME280;13851;43.434;28.338;2022-12-18T02:37:54;100780.50;;;11.72;100.00
26087;BME280;13851;43.434;28.338;2022-12-18T02:40:22;100658.53;;;11.08;100.00
26087;BME280;13851;43.434;28.338;2022-12-18T02:42:48;100732.38;;;11.43;100.00
26087;BME280;13851;43.434;28.338;2022-12-18T02:45:14;100780.41;;;11.48;100.00
26087;BME280;13851;43.434;28.338;2022-12-18T02:47:42;100537.16;;;10.13;100.00
26087;BME280;13851;43.434;28.338;2022-12-18T02:58:43;100832.19;;;11.51;100.00
26087;BME280;13851;43.434;28.338;2022-12-18T03:04:05;100524.88;;;9.65;100.00
26087;BME280;13851;43.434;28.338;2022-12-18T03:06:40;100799.13;;;11.18;100.00
26087;BME280;13851;43.434;28.338;2022-12-18T03:09:15;100844.25;;;11.58;100.00
26087;BME280;13851;43.434;28.338;2022-12-18T03:11:44;100528.22;;;9.77;100.00
26087;BME280;13851;43.434;28.338;2022-12-18T03:14:34;100848.34;;;11.54;100.00
26087;BME280;13851;43.434;28.338;2022-12-18T03:17:03;100845.53;;;11.45;100.00
26087;BME280;13851;43.434;28.338;2022-12-18T03:19:34;100847.06;;;11.40;100.00
26087;BME280;13851;43.434;28.338;2022-12-18T03:22:02;100808.69;;;11.14;100.00
26087;BME280;13851;43.434;28.338;2022-12-18T03:24:31;100827.56;;;11.17;100.00
26087;BME280;13851;43.434;28.338;2022-12-18T03:27:03;100828.72;;;11.06;100.00
26087;BME280;13851;43.434;28.338;2022-12-18T03:29:40;100816.34;;;11.02;100.00
26087;BME280;13851;43.434;28.338;2022-12-18T03:32:11;100845.19;;;11.14;100.00
26087;BME280;13851;43.434;28.338;2022-12-18T03:34:41;100838.28;;;10.84;100.00
26087;BME280;13851;43.434;28.338;2022-12-18T03:37:07;100564.84;;;9.40;100.00
26087;BME280;13851;43.434;28.338;2022-12-18T03:39:36;100855.56;;;11.03;100.00
26087;BME280;13851;43.434;28.338;2022-12-18T03:42:07;100833.09;;;10.73;100.00
26087;BME280;13851;43.434;28.338;2022-12-18T03:49:47;100923.81;;;11.06;100.00
26087;BME280;13851;43.434;28.338;2022-12-18T03:52:27;100875.28;;;10.80;100.00
26087;BME280;13851;43.434;28.338;2022-12-18T03:54:56;100912.38;;;10.92;100.00
26087;BME280;13851;43.434;28.338;2022-12-18T03:57:26;100879.59;;;10.47;100.00
26087;BME280;13851;43.434;28.338;2022-12-18T04:00:03;100624.28;;;9.20;100.00
26087;BME280;13851;43.434;28.338;2022-12-18T04:02:30;100965.25;;;10.85;100.00
26087;BME280;13851;43.434;28.338;2022-12-18T04:05:01;100911.22;;;10.77;100.00
26087;BME280;13851;43.434;28.338;2022-12-18T04:07:28;100862.31;;;10.47;100.00
26087;BME280;13851;43.434;28.338;2022-12-18T04:09:56;100936.84;;;10.68;100.00
26087;BME280;13851;43.434;28.338;2022-12-18T04:12:28;100794.69;;;9.94;100.00
26087;BME280;13851;43.434;28.338;2022-12-18T04:14:54;100917.25;;;10.63;100.00
26087;BME280;13851;43.434;28.338;2022-12-18T04:17:21;100928.00;;;10.56;100.00
26087;BME280;13851;43.434;28.338;2022-12-18T04:19:46;100880.78;;;9.99;100.00
26087;BME280;13851;43.434;28.338;2022-12-18T04:22:12;100894.19;;;10.20;100.00
26087;BME280;13851;43.434;28.338;2022-12-18T04:24:38;100919.81;;;10.01;100.00
26087;BME280;13851;43.434;28.338;2022-12-18T04:27:03;100962.50;;;10.22;100.00
26087;BME280;13851;43.434;28.338;2022-12-18T04:29:29;100809.63;;;9.54;100.00
26087;BME280;13851;43.434;28.338;2022-12-18T04:31:54;100938.28;;;10.27;100.00
26087;BME280;13851;43.434;28.338;2022-12-18T04:34:20;100737.81;;;8.97;100.00
26087;BME280;13851;43.434;28.338;2022-12-18T04:36:46;100935.66;;;9.98;100.00
26087;BME280;13851;43.434;28.338;2022-12-18T04:39:12;101004.72;;;9.92;100.00
26087;BME280;13851;43.434;28.338;2022-12-18T04:41:37;100991.63;;;9.85;100.00
26087;BME280;13851;43.434;28.338;2022-12-18T04:44:04;100965.75;;;9.70;100.00
26087;BME280;13851;43.434;28.338;2022-12-18T04:46:29;100961.06;;;9.62;100.00
26087;BME280;13851;43.434;28.338;2022-12-18T04:48:55;100997.06;;;9.58;100.00
26087;BME280;13851;43.434;28.338;2022-12-18T04:51:21;100947.28;;;9.45;100.00
26087;BME280;13851;43.434;28.338;2022-12-18T04:53:46;100987.66;;;9.70;100.00
26087;BME280;13851;43.434;28.338;2022-12-18T04:56:14;100994.22;;;9.30;100.00
26087;BME280;13851;43.434;28.338;2022-12-18T04:58:41;100714.28;;;7.91;100.00
26087;BME280;13851;43.434;28.338;2022-12-18T05:01:08;100982.81;;;9.54;100.00
26087;BME280;13851;43.434;28.338;2022-12-18T05:03:35;100938.69;;;9.20;100.00
26087;BME280;13851;43.434;28.338;2022-12-18T05:06:01;100945.34;;;9.08;100.00
26087;BME280;13851;43.434;28.338;2022-12-18T05:08:26;100998.72;;;9.12;100.00
26087;BME280;13851;43.434;28.338;2022-12-18T05:11:06;100991.06;;;9.25;100.00
26087;BME280;13851;43.434;28.338;2022-12-18T05:13:32;100728.94;;;7.70;100.00
26087;BME280;13851;43.434;28.338;2022-12-18T05:16:01;100976.00;;;9.11;100.00
26087;BME280;13851;43.434;28.338;2022-12-18T05:18:28;100976.53;;;9.05;100.00
26087;BME280;13851;43.434;28.338;2022-12-18T05:20:57;101004.19;;;9.22;100.00
26087;BME280;13851;43.434;28.338;2022-12-18T05:23:23;101032.22;;;9.33;100.00
26087;BME280;13851;43.434;28.338;2022-12-18T05:26:00;101021.59;;;9.11;100.00
26087;BME280;13851;43.434;28.338;2022-12-18T05:28:28;101079.72;;;9.13;100.00
26087;BME280;13851;43.434;28.338;2022-12-18T05:30:56;101034.69;;;9.17;100.00
26087;BME280;13851;43.434;28.338;2022-12-18T05:33:24;101104.34;;;9.32;100.00
26087;BME280;13851;43.434;28.338;2022-12-18T05:35:55;101058.72;;;9.33;100.00
26087;BME280;13851;43.434;28.338;2022-12-18T05:38:21;101064.03;;;9.34;100.00
26087;BME280;13851;43.434;28.338;2022-12-18T05:40:48;100777.41;;;7.57;100.00
26087;BME280;13851;43.434;28.338;2022-12-18T05:43:13;100976.56;;;8.76;100.00
26087;BME280;13851;43.434;28.338;2022-12-18T05:45:40;101071.38;;;9.24;100.00
26087;BME280;13851;43.434;28.338;2022-12-18T05:48:06;100976.41;;;8.58;100.00
26087;BME280;13851;43.434;28.338;2022-12-18T05:50:35;101115.28;;;9.32;100.00
26087;BME280;13851;43.434;28.338;2022-12-18T05:53:01;101084.03;;;9.25;100.00
26087;BME280;13851;43.434;28.338;2022-12-18T05:55:27;101102.16;;;9.26;100.00
26087;BME280;13851;43.434;28.338;2022-12-18T05:57:52;101062.41;;;8.83;100.00
26087;BME280;13851;43.434;28.338;2022-12-18T06:00:18;101088.63;;;9.15;100.00
26087;BME280;13851;43.434;28.338;2022-12-18T06:02:46;101132.38;;;9.15;100.00
26087;BME280;13851;43.434;28.338;2022-12-18T06:05:12;101013.50;;;8.61;100.00
26087;BME280;13851;43.434;28.338;2022-12-18T06:07:37;101075.66;;;8.88;100.00
26087;BME280;13851;43.434;28.338;2022-12-18T06:10:03;101130.06;;;9.01;100.00
26087;BME280;13851;43.434;28.338;2022-12-18T06:12:29;101120.31;;;8.68;100.00
26087;BME280;13851;43.434;28.338;2022-12-18T06:14:54;101142.09;;;8.89;100.00
26087;BME280;13851;43.434;28.338;2022-12-18T06:17:19;101059.16;;;8.40;100.00
26087;BME280;13851;43.434;28.338;2022-12-18T06:19:45;101155.63;;;8.90;100.00
26087;BME280;13851;43.434;28.338;2022-12-18T06:22:11;101158.31;;;8.71;100.00
26087;BME280;13851;43.434;28.338;2022-12-18T06:24:36;100963.38;;;7.81;100.00
26087;BME280;13851;43.434;28.338;2022-12-18T06:27:02;101049.91;;;8.31;100.00
26087;BME280;13851;43.434;28.338;2022-12-18T06:29:27;101143.81;;;8.90;100.00
26087;BME280;13851;43.434;28.338;2022-12-18T06:31:53;101181.63;;;8.84;100.00
26087;BME280;13851;43.434;28.338;2022-12-18T06:34:18;101110.97;;;8.61;100.00
26087;BME280;13851;43.434;28.338;2022-12-18T06:36:44;101183.34;;;8.76;100.00
26087;BME280;13851;43.434;28.338;2022-12-18T06:39:09;100911.31;;;7.54;100.00
26087;BME280;13851;43.434;28.338;2022-12-18T06:41:35;100789.94;;;7.19;100.00
26087;BME280;13851;43.434;28.338;2022-12-18T06:44:00;101062.88;;;9.08;100.00
26087;BME280;13851;43.434;28.338;2022-12-18T06:46:26;101236.66;;;10.19;100.00
26087;BME280;13851;43.434;28.338;2022-12-18T06:48:52;101151.91;;;10.07;100.00
26087;BME280;13851;43.434;28.338;2022-12-18T06:51:23;101225.34;;;10.60;100.00
26087;BME280;13851;43.434;28.338;2022-12-18T06:53:49;101169.94;;;10.29;100.00
26087;BME280;13851;43.434;28.338;2022-12-18T06:56:15;101188.28;;;10.56;100.00
26087;BME280;13851;43.434;28.338;2022-12-18T06:58:41;101244.94;;;10.75;100.00
26087;BME280;13851;43.434;28.338;2022-12-18T07:01:09;101211.53;;;10.43;100.00
26087;BME280;13851;43.434;28.338;2022-12-18T07:03:36;101212.56;;;10.41;100.00
26087;BME280;13851;43.434;28.338;2022-12-18T07:06:03;101210.41;;;10.16;100.00
26087;BME280;13851;43.434;28.338;2022-12-18T07:08:29;101234.66;;;9.92;100.00
26087;BME280;13851;43.434;28.338;2022-12-18T07:10:55;101196.31;;;9.72;100.00
26087;BME280;13851;43.434;28.338;2022-12-18T07:13:20;100765.81;;;7.15;100.00
26087;BME280;13851;43.434;28.338;2022-12-18T07:15:46;101251.94;;;9.73;100.00
26087;BME280;13851;43.434;28.338;2022-12-18T07:18:11;101296.84;;;9.60;100.00
26087;BME280;13851;43.434;28.338;2022-12-18T07:20:37;101203.94;;;8.90;100.00
26087;BME280;13851;43.434;28.338;2022-12-18T07:23:04;101158.09;;;8.53;100.00
26087;BME280;13851;43.434;28.338;2022-12-18T07:25:33;101203.16;;;8.68;100.00
26087;BME280;13851;43.434;28.338;2022-12-18T07:27:59;101270.44;;;9.00;100.00
26087;BME280;13851;43.434;28.338;2022-12-18T07:30:25;101240.13;;;8.72;100.00
26087;BME280;13851;43.434;28.338;2022-12-18T07:32:50;101255.41;;;8.54;100.00
26087;BME280;13851;43.434;28.338;2022-12-18T07:35:16;101297.72;;;8.90;100.00
26087;BME280;13851;43.434;28.338;2022-12-18T07:37:41;101039.47;;;7.33;100.00
26087;BME280;13851;43.434;28.338;2022-12-18T07:40:08;101231.31;;;8.38;100.00
26087;BME280;13851;43.434;28.338;2022-12-18T07:42:33;101303.59;;;8.55;100.00
26087;BME280;13851;43.434;28.338;2022-12-18T07:45:00;101319.81;;;8.77;100.00
26087;BME280;13851;43.434;28.338;2022-12-18T07:47:27;101307.72;;;8.70;100.00
26087;BME280;13851;43.434;28.338;2022-12-18T07:49:54;101305.25;;;8.67;100.00
26087;BME280;13851;43.434;28.338;2022-12-18T07:52:20;101278.94;;;8.66;100.00
26087;BME280;13851;43.434;28.338;2022-12-18T07:54:46;101303.31;;;8.58;100.00
26087;BME280;13851;43.434;28.338;2022-12-18T07:57:17;101096.66;;;7.44;100.00
26087;BME280;13851;43.434;28.338;2022-12-18T07:59:43;101351.47;;;9.01;100.00
26087;BME280;13851;43.434;28.338;2022-12-18T08:02:08;101259.22;;;8.42;100.00
26087;BME280;13851;43.434;28.338;2022-12-18T08:04:34;101340.44;;;9.12;100.00
26087;BME280;13851;43.434;28.338;2022-12-18T08:07:00;101156.94;;;8.04;100.00
26087;BME280;13851;43.434;28.338;2022-12-18T08:09:25;101281.41;;;8.79;100.00
26087;BME280;13851;43.434;28.338;2022-12-18T08:11:51;101379.59;;;9.13;100.00
26087;BME280;13851;43.434;28.338;2022-12-18T08:14:16;101342.53;;;8.78;100.00
26087;BME280;13851;43.434;28.338;2022-12-18T08:16:42;101353.38;;;8.89;100.00
26087;BME280;13851;43.434;28.338;2022-12-18T08:19:10;101340.28;;;9.14;100.00
26087;BME280;13851;43.434;28.338;2022-12-18T08:21:36;101328.00;;;8.98;100.00
26087;BME280;13851;43.434;28.338;2022-12-18T08:24:02;101317.50;;;8.73;100.00
26087;BME280;13851;43.434;28.338;2022-12-18T08:26:30;101050.38;;;7.33;100.00
26087;BME280;13851;43.434;28.338;2022-12-18T08:28:57;101356.84;;;9.12;100.00
26087;BME280;13851;43.434;28.338;2022-12-18T08:31:23;101308.41;;;8.93;100.00
26087;BME280;13851;43.434;28.338;2022-12-18T08:33:51;101384.81;;;9.25;100.00
26087;BME280;13851;43.434;28.338;2022-12-18T08:36:18;101304.91;;;8.81;100.00
26087;BME280;13851;43.434;28.338;2022-12-18T08:38:44;101347.91;;;9.10;100.00
26087;BME280;13851;43.434;28.338;2022-12-18T08:41:11;101360.75;;;9.19;100.00
26087;BME280;13851;43.434;28.338;2022-12-18T08:43:37;101351.69;;;9.19;100.00
26087;BME280;13851;43.434;28.338;2022-12-18T08:46:23;101389.97;;;9.19;100.00
26087;BME280;13851;43.434;28.338;2022-12-18T08:48:51;101330.13;;;9.25;100.00
26087;BME280;13851;43.434;28.338;2022-12-18T08:51:16;101293.06;;;9.02;100.00
26087;BME280;13851;43.434;28.338;2022-12-18T08:53:43;101352.84;;;9.26;100.00
26087;BME280;13851;43.434;28.338;2022-12-18T08:56:13;101278.53;;;9.01;100.00
26087;BME280;13851;43.434;28.338;2022-12-18T08:58:39;101144.06;;;8.16;100.00
26087;BME280;13851;43.434;28.338;2022-12-18T09:01:08;101361.56;;;9.41;100.00
26087;BME280;13851;43.434;28.338;2022-12-18T09:03:38;101364.41;;;9.29;100.00
26087;BME280;13851;43.434;28.338;2022-12-18T09:06:04;101314.19;;;9.00;100.00
26087;BME280;13851;43.434;28.338;2022-12-18T09:08:30;101276.75;;;8.91;100.00
26087;BME280;13851;43.434;28.338;2022-12-18T09:10:55;101369.06;;;9.38;100.00
26087;BME280;13851;43.434;28.338;2022-12-18T09:13:21;101342.47;;;9.20;100.00
26087;BME280;13851;43.434;28.338;2022-12-18T09:15:48;101254.19;;;8.68;100.00
26087;BME280;13851;43.434;28.338;2022-12-18T09:18:15;101427.50;;;9.68;100.00
26087;BME280;13851;43.434;28.338;2022-12-18T09:20:41;101355.00;;;9.53;100.00
26087;BME280;13851;43.434;28.338;2022-12-18T09:23:08;101388.72;;;9.63;100.00
26087;BME280;13851;43.434;28.338;2022-12-18T09:25:34;101111.03;;;8.19;100.00
26087;BME280;13851;43.434;28.338;2022-12-18T09:28:02;101381.94;;;9.67;100.00
26087;BME280;13851;43.434;28.338;2022-12-18T09:30:28;101282.16;;;9.11;100.00
26087;BME280;13851;43.434;28.338;2022-12-18T09:32:53;101085.66;;;7.97;100.00
26087;BME280;13851;43.434;28.338;2022-12-18T09:35:19;101323.56;;;9.37;100.00
26087;BME280;13851;43.434;28.338;2022-12-18T09:37:44;101087.09;;;8.01;100.00
26087;BME280;13851;43.434;28.338;2022-12-18T09:40:15;101353.59;;;9.58;100.00
26087;BME280;13851;43.434;28.338;2022-12-18T09:42:45;101354.38;;;9.40;100.00
26087;BME280;13851;43.434;28.338;2022-12-18T09:45:16;101368.56;;;9.64;100.00
26087;BME280;13851;43.434;28.338;2022-12-18T09:47:43;101367.41;;;9.67;100.00
26087;BME280;13851;43.434;28.338;2022-12-18T09:50:35;101364.81;;;9.65;100.00
26087;BME280;13851;43.434;28.338;2022-12-18T09:53:06;101353.81;;;9.46;100.00
26087;BME280;13851;43.434;28.338;2022-12-18T09:55:44;101340.50;;;9.31;100.00
26087;BME280;13851;43.434;28.338;2022-12-18T09:58:24;101367.41;;;9.67;100.00
26087;BME280;13851;43.434;28.338;2022-12-18T10:00:55;101358.63;;;9.63;100.00
26087;BME280;13851;43.434;28.338;2022-12-18T10:03:21;101341.75;;;9.48;100.00
26087;BME280;13851;43.434;28.338;2022-12-18T10:06:06;101357.56;;;9.45;100.00
26087;BME280;13851;43.434;28.338;2022-12-18T10:13:48;101375.59;;;9.57;100.00
26087;BME280;13851;43.434;28.338;2022-12-18T10:16:29;101155.97;;;8.36;100.00
26087;BME280;13851;43.434;28.338;2022-12-18T10:21:54;101367.41;;;9.67;100.00
26087;BME280;13851;43.434;28.338;2022-12-18T10:27:17;101355.16;;;9.61;100.00
26087;BME280;13851;43.434;28.338;2022-12-18T10:29:46;101333.22;;;9.51;100.00
26087;BME280;13851;43.434;28.338;2022-12-18T10:32:21;101264.19;;;9.19;100.00
26087;BME280;13851;43.434;28.338;2022-12-18T10:34:49;101336.00;;;9.61;100.00
26087;BME280;13851;43.434;28.338;2022-12-18T10:37:18;101359.94;;;9.69;100.00
26087;BME280;13851;43.434;28.338;2022-12-18T10:39:45;101336.34;;;9.68;100.00
26087;BME280;13851;43.434;28.338;2022-12-18T10:42:17;101042.22;;;7.85;100.00
26087;BME280;13851;43.434;28.338;2022-12-18T10:44:43;101341.91;;;9.66;100.00
26087;BME280;13851;43.434;28.338;2022-12-18T10:47:14;101406.47;;;9.38;100.00
26087;BME280;13851;43.434;28.338;2022-12-18T10:49:42;101346.69;;;9.64;100.00
26087;BME280;13851;43.434;28.338;2022-12-18T10:52:17;101378.09;;;9.70;100.00
26087;BME280;13851;43.434;28.338;2022-12-18T10:57:37;101252.44;;;9.28;100.00
26087;BME280;13851;43.434;28.338;2022-12-18T11:00:26;101180.47;;;8.77;100.00
26087;BME280;13851;43.434;28.338;2022-12-18T11:02:53;101339.50;;;9.82;100.00
26087;BME280;13851;43.434;28.338;2022-12-18T11:05:37;101311.09;;;9.64;100.00
26087;BME280;13851;43.434;28.338;2022-12-18T11:08:02;101316.41;;;9.56;100.00
26087;BME280;13851;43.434;28.338;2022-12-18T11:10:30;101337.06;;;9.79;100.00
26087;BME280;13851;43.434;28.338;2022-12-18T11:13:27;101320.22;;;9.74;100.00
26087;BME280;13851;43.434;28.338;2022-12-18T11:15:54;101311.81;;;9.66;100.00
26087;BME280;13851;43.434;28.338;2022-12-18T11:18:33;101374.06;;;9.74;100.00
26087;BME280;13851;43.434;28.338;2022-12-18T11:21:07;101365.25;;;9.60;100.00
26087;BME280;13851;43.434;28.338;2022-12-18T11:23:35;101315.09;;;9.50;100.00
26087;BME280;13851;43.434;28.338;2022-12-18T11:26:03;101345.50;;;9.57;100.00
26087;BME280;13851;43.434;28.338;2022-12-18T11:31:25;101401.84;;;9.69;100.00
26087;BME280;13851;43.434;28.338;2022-12-18T11:36:42;101334.34;;;9.89;100.00
26087;BME280;13851;43.434;28.338;2022-12-18T11:39:27;101335.13;;;10.30;100.00
26087;BME280;13851;43.434;28.338;2022-12-18T11:42:05;101061.56;;;8.93;100.00
26087;BME280;13851;43.434;28.338;2022-12-18T11:44:52;101274.44;;;10.25;100.00
26087;BME280;13851;43.434;28.338;2022-12-18T11:47:52;101360.16;;;10.83;100.00
26087;BME280;13851;43.434;28.338;2022-12-18T11:50:37;101322.84;;;10.63;100.00
26087;BME280;13851;43.434;28.338;2022-12-18T11:53:11;101323.31;;;10.39;100.00
26087;BME280;13851;43.434;28.338;2022-12-18T11:55:47;101317.66;;;10.21;100.00
26087;BME280;13851;43.434;28.338;2022-12-18T11:58:47;101206.66;;;9.30;100.00
26087;BME280;13851;43.434;28.338;2022-12-18T12:12:09;101365.38;;;9.59;100.00
26087;BME280;13851;43.434;28.338;2022-12-18T12:14:54;101364.38;;;9.60;100.00
26087;BME280;13851;43.434;28.338;2022-12-18T12:17:35;101371.13;;;9.56;100.00
26087;BME280;13851;43.434;28.338;2022-12-18T12:28:15;101095.84;;;7.33;100.00
26087;BME280;13851;43.434;28.338;2022-12-18T12:39:21;101418.03;;;8.58;100.00
26087;BME280;13851;43.434;28.338;2022-12-18T12:41:48;101380.13;;;8.32;100.00
26087;BME280;13851;43.434;28.338;2022-12-18T12:44:46;101399.66;;;8.60;100.00
26087;BME280;13851;43.434;28.338;2022-12-18T12:47:14;101407.38;;;8.55;100.00
26087;BME280;13851;43.434;28.338;2022-12-18T12:49:44;101413.50;;;8.68;100.00
26087;BME280;13851;43.434;28.338;2022-12-18T12:52:34;101420.06;;;8.77;100.00
26087;BME280;13851;43.434;28.338;2022-12-18T12:55:02;101435.66;;;8.86;100.00
26087;BME280;13851;43.434;28.338;2022-12-18T12:57:37;101423.72;;;8.87;100.00
26087;BME280;13851;43.434;28.338;2022-12-18T13:00:09;101435.06;;;8.82;100.00
26087;BME280;13851;43.434;28.338;2022-12-18T13:05:14;101450.84;;;8.79;100.00
26087;BME280;13851;43.434;28.338;2022-12-18T13:08:21;101464.16;;;8.72;100.00
26087;BME280;13851;43.434;28.338;2022-12-18T13:13:13;101460.22;;;8.65;100.00
26087;BME280;13851;43.434;28.338;2022-12-18T13:15:47;101452.81;;;8.56;100.00
26087;BME280;13851;43.434;28.338;2022-12-18T13:25:45;101474.34;;;8.38;100.00
26087;BME280;13851;43.434;28.338;2022-12-18T13:28:14;101474.69;;;8.33;100.00
26087;BME280;13851;43.434;28.338;2022-12-18T13:41:04;101489.13;;;8.24;100.00
26087;BME280;13851;43.434;28.338;2022-12-18T13:43:46;101490.97;;;8.24;100.00
26087;BME280;13851;43.434;28.338;2022-12-18T13:48:51;101497.31;;;8.24;100.00
26087;BME280;13851;43.434;28.338;2022-12-18T13:51:17;101496.81;;;8.30;100.00
26087;BME280;13851;43.434;28.338;2022-12-18T13:53:47;101493.22;;;8.30;100.00
26087;BME280;13851;43.434;28.338;2022-12-18T13:56:23;101503.13;;;8.31;100.00
26087;BME280;13851;43.434;28.338;2022-12-18T14:01:35;101511.84;;;8.36;100.00
26087;BME280;13851;43.434;28.338;2022-12-18T14:04:10;101510.19;;;8.33;100.00
26087;BME280;13851;43.434;28.338;2022-12-18T14:06:39;101504.13;;;8.19;100.00
26087;BME280;13851;43.434;28.338;2022-12-18T14:09:04;101496.06;;;8.17;100.00
26087;BME280;13851;43.434;28.338;2022-12-18T14:11:33;101499.44;;;7.98;100.00
26087;BME280;13851;43.434;28.338;2022-12-18T14:13:58;101505.78;;;7.99;100.00
26087;BME280;13851;43.434;28.338;2022-12-18T14:16:23;101499.69;;;7.95;100.00
26087;BME280;13851;43.434;28.338;2022-12-18T14:18:55;101498.56;;;7.87;100.00
26087;BME280;13851;43.434;28.338;2022-12-18T14:21:24;101500.81;;;7.81;100.00
26087;BME280;13851;43.434;28.338;2022-12-18T14:24:03;101517.94;;;7.84;100.00
26087;BME280;13851;43.434;28.338;2022-12-18T14:26:29;101503.78;;;7.67;100.00
26087;BME280;13851;43.434;28.338;2022-12-18T14:28:59;101513.09;;;7.65;100.00
26087;BME280;13851;43.434;28.338;2022-12-18T14:31:27;101517.81;;;7.63;100.00
26087;BME280;13851;43.434;28.338;2022-12-18T14:33:53;101532.81;;;7.68;100.00
26087;BME280;13851;43.434;28.338;2022-12-18T14:36:20;101541.00;;;7.68;100.00